createdAt,value
2023-03-11T00:01:11.641Z,7.93
2023-03-11T00:03:40.309Z,7.90
2023-03-11T00:06:09.212Z,7.88
2023-03-11T00:08:37.844Z,7.87
2023-03-11T00:11:06.379Z,7.85
2023-03-11T00:13:37.219Z,7.85
2023-03-11T00:16:06.628Z,7.85
2023-03-11T00:18:35.000Z,7.87
2023-03-11T00:21:03.892Z,7.89
2023-03-11T00:23:34.832Z,7.90
2023-03-11T00:26:03.503Z,7.92
2023-03-11T00:28:34.281Z,7.95
2023-03-11T00:31:03.799Z,7.99
2023-03-11T00:33:32.754Z,8.05
2023-03-11T00:36:01.346Z,8.09
2023-03-11T00:38:30.242Z,8.13
2023-03-11T00:41:01.944Z,8.19
2023-03-11T00:43:33.437Z,8.25
2023-03-11T00:46:02.294Z,8.33
2023-03-11T00:48:31.117Z,8.41
2023-03-11T00:50:59.910Z,8.49
2023-03-11T00:53:28.799Z,8.57
2023-03-11T00:55:57.894Z,8.64
2023-03-11T00:58:29.177Z,8.72
2023-03-11T01:00:58.878Z,8.79
2023-03-11T01:03:27.827Z,8.86
2023-03-11T01:05:56.539Z,8.93
2023-03-11T01:08:27.478Z,8.97
2023-03-11T01:10:56.569Z,9.03
2023-03-11T01:13:25.976Z,9.08
2023-03-11T01:15:54.601Z,9.14
2023-03-11T01:18:23.861Z,9.18
2023-03-11T01:20:52.946Z,9.19
2023-03-11T01:23:22.060Z,9.20
2023-03-11T01:25:50.705Z,9.21
2023-03-11T01:28:19.221Z,9.20
2023-03-11T01:30:48.135Z,9.19
2023-03-11T01:33:19.790Z,9.20
2023-03-11T01:35:49.750Z,9.23
2023-03-11T01:38:18.680Z,9.27
2023-03-11T01:40:50.720Z,9.31
2023-03-11T01:43:56.604Z,9.35
2023-03-11T01:46:37.235Z,9.40
2023-03-11T01:49:06.380Z,9.43
2023-03-11T01:51:41.189Z,9.45
2023-03-11T01:54:15.351Z,9.47
2023-03-11T01:56:45.945Z,9.47
2023-03-11T01:59:17.810Z,9.48
2023-03-11T02:02:09.795Z,9.50
2023-03-11T02:04:41.092Z,9.55
2023-03-11T02:07:12.201Z,9.58
2023-03-11T02:09:40.832Z,9.62
2023-03-11T02:12:11.726Z,9.64
2023-03-11T02:14:45.463Z,9.65
2023-03-11T02:17:14.565Z,9.64
2023-03-11T02:20:15.615Z,9.62
2023-03-11T02:22:44.808Z,9.63
2023-03-11T02:25:35.821Z,9.62
2023-03-11T02:28:08.713Z,9.65
2023-03-11T02:30:40.148Z,9.65
2023-03-11T02:33:09.923Z,9.64
2023-03-11T02:35:38.589Z,9.61
2023-03-11T02:38:07.412Z,9.62
2023-03-11T02:40:40.334Z,9.63
2023-03-11T02:43:15.175Z,9.61
2023-03-11T02:45:49.192Z,9.54
2023-03-11T02:48:19.086Z,9.47
2023-03-11T02:50:48.190Z,9.41
2023-03-11T02:53:17.592Z,9.37
2023-03-11T02:55:46.480Z,9.34
2023-03-11T02:58:15.267Z,9.30
2023-03-11T03:00:43.881Z,9.27
2023-03-11T03:03:12.643Z,9.24
2023-03-11T03:05:43.069Z,9.22
2023-03-11T03:08:12.065Z,9.22
2023-03-11T03:10:40.854Z,9.22
2023-03-11T03:13:09.963Z,9.24
2023-03-11T03:15:38.951Z,9.26
2023-03-11T03:18:08.038Z,9.29
2023-03-11T03:20:36.703Z,9.31
2023-03-11T03:23:05.720Z,9.35
2023-03-11T03:25:34.821Z,9.39
2023-03-11T03:28:06.170Z,9.42
2023-03-11T03:30:36.879Z,9.44
2023-03-11T03:33:07.177Z,9.47
2023-03-11T03:35:35.965Z,9.50
2023-03-11T03:38:11.573Z,9.53
2023-03-11T03:40:45.899Z,9.55
2023-03-11T03:43:15.263Z,9.60
2023-03-11T03:45:45.754Z,9.64
2023-03-11T03:48:14.301Z,9.67
2023-03-11T03:50:45.307Z,9.69
2023-03-11T03:53:16.866Z,9.71
2023-03-11T03:55:45.381Z,9.75
2023-03-11T03:58:14.584Z,9.79
2023-03-11T04:00:45.017Z,9.81
2023-03-11T04:03:13.951Z,9.82
2023-03-11T04:05:48.121Z,9.84
2023-03-11T04:08:16.928Z,9.86
2023-03-11T04:10:45.905Z,9.87
2023-03-11T04:13:15.038Z,9.86
2023-03-11T04:15:43.661Z,9.85
2023-03-11T04:18:12.172Z,9.86
2023-03-11T04:20:41.067Z,9.89
2023-03-11T04:23:09.756Z,9.91
2023-03-11T04:25:38.560Z,9.90
2023-03-11T04:28:07.634Z,9.88
2023-03-11T04:30:36.366Z,9.88
2023-03-11T04:33:05.124Z,9.86
2023-03-11T04:35:34.648Z,9.84
2023-03-11T04:38:03.205Z,9.82
2023-03-11T04:40:32.189Z,9.83
2023-03-11T04:43:01.799Z,9.81
2023-03-11T04:45:30.385Z,9.81
2023-03-11T04:47:59.480Z,9.81
2023-03-11T04:50:28.577Z,9.80
2023-03-11T04:52:57.672Z,9.80
2023-03-11T04:55:26.574Z,9.79
2023-03-11T04:57:56.071Z,9.71
2023-03-11T05:00:25.597Z,9.67
2023-03-11T05:03:02.731Z,9.63
2023-03-11T05:05:31.580Z,9.59
2023-03-11T05:08:00.343Z,9.57
2023-03-11T05:10:31.991Z,9.55
2023-03-11T05:13:03.448Z,9.55
2023-03-11T05:15:34.490Z,9.56
2023-03-11T05:18:05.493Z,9.59
2023-03-11T05:20:34.120Z,9.59
2023-03-11T05:23:04.447Z,9.58
2023-03-11T05:25:35.605Z,9.61
2023-03-11T05:28:05.473Z,9.63
2023-03-11T05:30:35.134Z,9.67
2023-03-11T05:33:04.832Z,9.70
2023-03-11T05:35:34.659Z,9.73
2023-03-11T05:38:03.736Z,9.77
2023-03-11T05:40:32.425Z,9.81
2023-03-11T05:43:01.832Z,9.86
2023-03-11T05:45:31.131Z,9.91
2023-03-11T05:48:01.239Z,9.96
2023-03-11T05:50:31.755Z,9.99
2023-03-11T05:53:00.882Z,10.01
2023-03-11T05:55:31.014Z,10.00
2023-03-11T05:58:00.442Z,10.01
2023-03-11T06:00:29.745Z,9.99
2023-03-11T06:03:00.540Z,9.99
2023-03-11T06:05:29.506Z,9.97
2023-03-11T06:07:58.329Z,9.95
2023-03-11T06:10:27.812Z,9.95
2023-03-11T06:12:56.687Z,9.95
2023-03-11T06:15:37.500Z,9.99
2023-03-11T06:18:06.485Z,10.04
2023-03-11T06:20:37.881Z,10.11
2023-03-11T06:23:07.041Z,10.18
2023-03-11T06:25:35.898Z,10.25
2023-03-11T06:28:05.105Z,10.30
2023-03-11T06:30:34.221Z,10.33
2023-03-11T06:33:09.871Z,10.38
2023-03-11T06:35:38.489Z,10.45
2023-03-11T06:38:07.555Z,10.52
2023-03-11T06:40:38.721Z,10.60
2023-03-11T06:43:07.702Z,10.67
2023-03-11T06:45:38.760Z,10.76
2023-03-11T06:48:07.444Z,10.84
2023-03-11T06:50:36.824Z,10.94
2023-03-11T06:53:07.996Z,11.01
2023-03-11T06:55:37.374Z,11.09
2023-03-11T06:58:06.676Z,11.15
2023-03-11T07:00:35.362Z,11.24
2023-03-11T07:03:04.459Z,11.28
2023-03-11T07:05:33.661Z,11.34
2023-03-11T07:08:06.133Z,11.36
2023-03-11T07:10:36.055Z,11.37
2023-03-11T07:13:04.534Z,11.38
2023-03-11T07:15:33.323Z,11.39
2023-03-11T07:18:02.115Z,11.40
2023-03-11T07:20:30.917Z,11.41
2023-03-11T07:22:59.898Z,11.42
2023-03-11T07:25:29.114Z,11.42
2023-03-11T07:27:57.688Z,11.43
2023-03-11T07:30:26.776Z,11.43
2023-03-11T07:32:55.727Z,11.46
2023-03-11T07:35:24.260Z,11.51
2023-03-11T07:37:53.050Z,11.51
2023-03-11T07:40:21.937Z,11.55
2023-03-11T07:42:50.418Z,11.58
2023-03-11T07:45:20.643Z,11.65
2023-03-11T07:47:49.430Z,11.70
2023-03-11T07:50:18.728Z,11.76
2023-03-11T07:52:47.383Z,11.77
2023-03-11T07:55:16.233Z,11.82
2023-03-11T07:57:47.965Z,11.84
2023-03-11T08:00:17.373Z,11.89
2023-03-11T08:02:46.352Z,11.95
2023-03-11T08:05:15.159Z,11.99
2023-03-11T08:07:44.151Z,11.98
2023-03-11T08:10:13.143Z,11.98
2023-03-11T08:12:41.727Z,11.95
2023-03-11T08:15:11.201Z,11.98
2023-03-11T08:17:39.918Z,12.00
2023-03-11T08:20:09.636Z,12.03
2023-03-11T08:22:48.728Z,12.11
2023-03-11T08:25:25.229Z,12.19
2023-03-11T08:27:53.983Z,12.25
2023-03-11T08:30:23.120Z,12.28
2023-03-11T08:32:51.828Z,12.36
2023-03-11T08:35:20.812Z,12.50
2023-03-11T08:37:49.488Z,12.72
2023-03-11T08:40:18.995Z,12.88
2023-03-11T08:42:47.576Z,12.97
2023-03-11T08:45:16.392Z,13.15
2023-03-11T08:47:45.152Z,13.27
2023-03-11T08:50:17.186Z,13.38
2023-03-11T08:52:46.108Z,13.41
2023-03-11T09:00:07.476Z,13.44
2023-03-11T09:03:35.745Z,13.39
2023-03-11T09:07:08.434Z,13.41
2023-03-11T09:10:16.653Z,13.61
2023-03-11T09:13:45.245Z,13.98
2023-03-11T09:21:09.456Z,14.06
2023-03-11T09:24:37.660Z,14.40
2023-03-11T09:27:06.715Z,14.40
2023-03-11T09:29:35.212Z,14.25
2023-03-11T09:32:04.214Z,14.22
2023-03-11T09:34:33.418Z,14.25
2023-03-11T09:37:02.028Z,14.38
2023-03-11T09:39:31.208Z,14.58
2023-03-11T09:42:20.375Z,14.82
2023-03-11T09:45:02.902Z,14.80
2023-03-11T09:47:42.186Z,14.81
2023-03-11T09:50:35.584Z,14.85
2023-03-11T09:53:29.665Z,14.87
2023-03-11T09:56:00.481Z,14.96
2023-03-11T09:58:53.149Z,15.06
2023-03-11T10:01:26.687Z,15.41
2023-03-11T10:03:57.989Z,15.80
2023-03-11T10:06:30.491Z,15.92
2023-03-11T10:09:14.421Z,15.94
2023-03-11T10:12:15.159Z,16.31
2023-03-11T10:15:09.323Z,16.66
2023-03-11T10:17:56.170Z,16.74
2023-03-11T10:20:48.405Z,16.78
2023-03-11T10:23:43.704Z,16.74
2023-03-11T10:26:30.145Z,16.83
2023-03-11T10:29:24.406Z,16.67
2023-03-11T10:32:12.672Z,16.47
2023-03-11T10:35:07.960Z,16.52
2023-03-11T10:37:49.657Z,16.81
2023-03-11T10:40:43.319Z,16.91
2023-03-11T10:43:20.265Z,16.95
2023-03-11T10:45:51.370Z,16.99
2023-03-11T10:48:21.947Z,17.00
2023-03-11T10:51:14.526Z,17.06
2023-03-11T10:54:03.825Z,17.04
2023-03-11T10:56:38.458Z,16.90
2023-03-11T10:59:30.837Z,16.69
2023-03-11T11:02:21.785Z,16.58
2023-03-11T11:05:06.746Z,16.33
2023-03-11T11:07:39.766Z,15.87
2023-03-11T11:10:22.525Z,15.68
2023-03-11T11:12:54.517Z,15.46
2023-03-11T11:15:24.603Z,15.29
2023-03-11T11:17:57.011Z,15.22
2023-03-11T11:20:27.729Z,15.30
2023-03-11T11:23:06.686Z,15.63
2023-03-11T11:25:41.313Z,16.09
2023-03-11T11:28:19.625Z,16.23
2023-03-11T11:32:00.086Z,16.10
2023-03-11T11:34:34.823Z,15.87
2023-03-11T11:37:06.516Z,15.76
2023-03-11T11:39:52.178Z,15.62
2023-03-11T11:42:21.936Z,15.56
2023-03-11T11:44:57.038Z,15.63
2023-03-11T11:47:30.501Z,15.88
2023-03-11T11:50:07.456Z,16.40
2023-03-11T11:52:47.810Z,16.71
2023-03-11T11:55:31.176Z,16.88
2023-03-11T11:58:59.925Z,17.00
2023-03-11T12:02:16.490Z,17.35
2023-03-11T12:04:48.658Z,17.53
2023-03-11T12:07:55.121Z,17.22
2023-03-11T12:10:47.776Z,16.75
2023-03-11T12:13:44.430Z,16.48
2023-03-11T12:16:44.843Z,16.29
2023-03-11T12:19:56.649Z,16.11
2023-03-11T12:22:56.364Z,16.11
2023-03-11T12:25:32.865Z,16.12
2023-03-11T12:28:33.114Z,16.09
2023-03-11T12:31:07.205Z,15.90
2023-03-11T12:33:43.117Z,15.85
2023-03-11T12:36:45.095Z,15.87
2023-03-11T12:39:29.243Z,15.85
2023-03-11T12:42:19.334Z,15.76
2023-03-11T12:44:49.798Z,15.65
2023-03-11T12:47:22.648Z,15.51
2023-03-11T12:49:55.269Z,15.39
2023-03-11T12:52:26.526Z,15.35
2023-03-11T12:55:01.535Z,15.43
2023-03-11T12:57:43.098Z,15.49
2023-03-11T13:00:23.668Z,15.57
2023-03-11T13:03:27.423Z,15.67
2023-03-11T13:06:15.292Z,15.78
2023-03-11T13:08:52.719Z,15.83
2023-03-11T13:11:37.601Z,15.81
2023-03-11T13:14:29.927Z,15.80
2023-03-11T13:17:34.138Z,15.73
2023-03-11T13:20:02.930Z,15.59
2023-03-11T13:23:05.884Z,15.49
2023-03-11T13:26:17.117Z,15.42
2023-03-11T13:29:44.240Z,15.45
2023-03-11T13:32:40.562Z,15.52
2023-03-11T13:35:45.068Z,15.52
2023-03-11T13:38:30.301Z,15.46
2023-03-11T13:41:01.104Z,15.41
2023-03-11T13:43:29.824Z,15.38
2023-03-11T13:46:21.520Z,15.43
2023-03-11T13:48:51.161Z,15.48
2023-03-11T13:51:28.459Z,15.52
2023-03-11T13:54:02.651Z,15.56
2023-03-11T13:56:44.018Z,15.60
2023-03-11T13:59:26.172Z,15.66
2023-03-11T14:02:01.270Z,15.84
2023-03-11T14:04:36.193Z,16.00
2023-03-11T14:07:20.317Z,16.15
2023-03-11T14:09:48.967Z,16.42
2023-03-11T14:12:19.159Z,16.90
2023-03-11T14:14:59.494Z,17.78
2023-03-11T14:17:28.434Z,18.78
2023-03-11T14:20:29.378Z,19.46
2023-03-11T14:22:58.596Z,19.83
2023-03-11T14:26:26.933Z,20.32
2023-03-11T14:29:57.918Z,20.79
2023-03-11T14:32:34.059Z,20.46
2023-03-11T14:35:21.106Z,20.40
2023-03-11T14:37:50.394Z,20.42
2023-03-11T14:40:51.727Z,20.37
2023-03-11T14:43:22.275Z,20.25
2023-03-11T14:45:52.768Z,19.89
2023-03-11T14:48:37.464Z,19.22
2023-03-11T14:51:14.148Z,18.47
2023-03-11T14:53:49.918Z,17.80
2023-03-11T14:56:22.116Z,17.27
2023-03-11T14:59:07.695Z,16.87
2023-03-11T15:01:43.268Z,16.51
2023-03-11T15:04:15.053Z,16.25
2023-03-11T15:06:45.609Z,16.06
2023-03-11T15:09:17.958Z,15.91
2023-03-11T15:11:50.970Z,15.91
2023-03-11T15:14:26.498Z,15.98
2023-03-11T15:16:56.574Z,15.96
2023-03-11T15:19:28.380Z,15.90
2023-03-11T15:21:59.911Z,15.88
2023-03-11T15:24:31.632Z,15.83
2023-03-11T15:27:04.522Z,15.78
2023-03-11T15:29:35.360Z,15.70
2023-03-11T15:32:42.999Z,15.52
2023-03-11T15:35:28.090Z,15.15
2023-03-11T15:38:25.617Z,14.74
2023-03-11T15:42:04.893Z,14.22
2023-03-11T15:45:13.834Z,13.59
2023-03-11T15:47:43.199Z,13.25
2023-03-11T15:50:43.119Z,13.05
2023-03-11T15:53:18.694Z,12.70
2023-03-11T15:55:48.003Z,12.45
2023-03-11T15:58:18.576Z,12.34
2023-03-11T16:00:59.603Z,12.27
2023-03-11T16:03:31.202Z,12.20
2023-03-11T16:05:59.871Z,12.11
2023-03-11T16:08:28.726Z,12.00
2023-03-11T16:10:58.449Z,11.91
2023-03-11T16:13:27.037Z,11.82
2023-03-11T16:15:55.850Z,11.68
2023-03-11T16:18:24.726Z,11.59
2023-03-11T16:20:55.689Z,11.53
2023-03-11T16:23:44.869Z,11.44
2023-03-11T16:26:21.241Z,11.35
2023-03-11T16:28:50.180Z,11.26
2023-03-11T16:31:18.806Z,11.15
2023-03-11T16:33:47.868Z,11.05
2023-03-11T16:36:16.655Z,10.96
2023-03-11T16:38:48.033Z,10.92
2023-03-11T16:41:18.096Z,10.88
2023-03-11T16:43:46.963Z,10.84
2023-03-11T16:46:15.630Z,10.80
2023-03-11T16:48:45.113Z,10.73
2023-03-11T16:51:13.594Z,10.67
2023-03-11T16:53:42.585Z,10.62
2023-03-11T16:56:11.679Z,10.59
2023-03-11T16:58:40.170Z,10.57
2023-03-11T17:01:12.815Z,10.50
2023-03-11T17:03:43.609Z,10.42
2023-03-11T17:06:12.594Z,10.34
2023-03-11T17:08:41.436Z,10.25
2023-03-11T17:11:21.835Z,10.17
2023-03-11T17:13:51.207Z,10.13
2023-03-11T17:16:20.871Z,10.05
2023-03-11T17:18:49.324Z,10.00
2023-03-11T17:21:18.795Z,10.00
2023-03-11T17:23:47.519Z,9.98
2023-03-11T17:26:17.431Z,9.94
2023-03-11T17:28:47.414Z,9.86
2023-03-11T17:31:16.936Z,9.81
2023-03-11T17:33:45.861Z,9.84
2023-03-11T17:36:17.145Z,9.84
2023-03-11T17:38:47.631Z,9.85
2023-03-11T17:41:17.931Z,9.74
2023-03-11T17:43:47.872Z,9.61
2023-03-11T17:46:18.829Z,9.56
2023-03-11T17:48:49.618Z,9.55
2023-03-11T17:51:24.127Z,9.53
2023-03-11T17:53:55.471Z,9.53
2023-03-11T17:56:24.220Z,9.50
2023-03-11T17:58:53.253Z,9.49
2023-03-11T18:01:24.925Z,9.49
2023-03-11T18:03:53.869Z,9.50
2023-03-11T18:06:23.862Z,9.52
2023-03-11T18:08:53.068Z,9.51
2023-03-11T18:11:24.186Z,9.51
2023-03-11T18:13:54.306Z,9.50
2023-03-11T18:16:41.695Z,9.49
2023-03-11T18:19:10.973Z,9.45
2023-03-11T18:21:39.748Z,9.40
2023-03-11T18:24:08.197Z,9.34
2023-03-11T18:26:37.015Z,9.30
2023-03-11T18:29:05.599Z,9.24
2023-03-11T18:31:34.217Z,9.19
2023-03-11T18:34:05.324Z,9.15
2023-03-11T18:36:36.903Z,9.09
2023-03-11T18:39:05.558Z,9.03
2023-03-11T18:41:35.685Z,8.93
2023-03-11T18:44:05.071Z,8.81
2023-03-11T18:46:34.084Z,8.77
2023-03-11T18:49:04.209Z,8.78
2023-03-11T18:51:33.511Z,8.86
2023-03-11T18:54:03.015Z,8.96
2023-03-11T18:56:31.811Z,9.00
2023-03-11T18:59:00.570Z,8.98
2023-03-11T19:01:29.698Z,8.92
2023-03-11T19:04:00.686Z,8.84
2023-03-11T19:06:29.942Z,8.74
2023-03-11T19:08:59.139Z,8.66
2023-03-11T19:11:27.821Z,8.59
2023-03-11T19:13:56.408Z,8.56
2023-03-11T19:16:26.477Z,8.53
2023-03-11T19:18:56.548Z,8.49
2023-03-11T19:21:26.269Z,8.46
2023-03-11T19:23:56.714Z,8.41
2023-03-11T19:26:41.432Z,8.34
2023-03-11T19:29:12.646Z,8.25
2023-03-11T19:31:41.691Z,8.15
2023-03-11T19:34:10.187Z,8.07
2023-03-11T19:36:39.770Z,8.03
2023-03-11T19:39:08.581Z,7.99
2023-03-11T19:41:39.312Z,7.93
2023-03-11T19:44:08.346Z,7.85
2023-03-11T19:46:37.199Z,7.77
2023-03-11T19:49:05.676Z,7.67
2023-03-11T19:51:48.473Z,7.59
2023-03-11T19:54:18.711Z,7.50
2023-03-11T19:56:48.468Z,7.47
2023-03-11T19:59:17.436Z,7.47
2023-03-11T20:01:46.477Z,7.52
2023-03-11T20:04:15.589Z,7.57
2023-03-11T20:06:45.530Z,7.64
2023-03-11T20:09:16.354Z,7.70
2023-03-11T20:11:45.954Z,7.72
2023-03-11T20:14:14.773Z,7.74
2023-03-11T20:16:43.694Z,7.76
2023-03-11T20:19:12.557Z,7.75
2023-03-11T20:21:42.061Z,7.71
2023-03-11T20:24:11.684Z,7.67
2023-03-11T20:26:40.761Z,7.62
2023-03-11T20:29:09.267Z,7.52
2023-03-11T20:31:38.344Z,7.39
2023-03-11T20:34:07.224Z,7.28
2023-03-11T20:36:35.906Z,7.21
2023-03-11T20:39:09.449Z,7.19
2023-03-11T20:41:40.781Z,7.21
2023-03-11T20:44:13.512Z,7.23
2023-03-11T20:46:42.791Z,7.23
2023-03-11T20:49:11.826Z,7.21
2023-03-11T20:51:41.909Z,7.15
2023-03-11T20:54:12.342Z,7.09
2023-03-11T20:56:41.643Z,7.01
2023-03-11T20:59:14.187Z,6.95
2023-03-11T21:01:43.934Z,6.89
2023-03-11T21:04:14.551Z,6.83
2023-03-11T21:06:49.905Z,6.79
2023-03-11T21:09:19.285Z,6.76
2023-03-11T21:11:48.432Z,6.76
2023-03-11T21:14:19.040Z,6.77
2023-03-11T21:16:48.076Z,6.73
2023-03-11T21:19:17.159Z,6.68
2023-03-11T21:21:46.072Z,6.62
2023-03-11T21:24:15.541Z,6.50
2023-03-11T21:26:44.416Z,6.37
2023-03-11T21:29:13.505Z,6.21
2023-03-11T21:31:42.131Z,5.99
2023-03-11T21:34:12.161Z,5.77
2023-03-11T21:36:41.553Z,5.58
2023-03-11T21:39:10.471Z,5.41
2023-03-11T21:41:40.146Z,5.30
2023-03-11T21:44:09.003Z,5.18
2023-03-11T21:46:37.985Z,5.06
2023-03-11T21:49:06.881Z,4.94
2023-03-11T21:51:35.829Z,4.79
2023-03-11T21:54:05.692Z,4.66
2023-03-11T21:56:34.563Z,4.53
2023-03-11T21:59:04.261Z,4.49
2023-03-11T22:01:33.013Z,4.46
2023-03-11T22:04:02.581Z,4.41
2023-03-11T22:06:33.732Z,4.36
2023-03-11T22:09:03.532Z,4.27
2023-03-11T22:11:32.523Z,4.21
2023-03-11T22:14:01.518Z,4.17
2023-03-11T22:16:30.416Z,4.11
2023-03-11T22:18:59.171Z,4.06
2023-03-11T22:21:27.984Z,4.00
2023-03-11T22:23:56.743Z,3.97
2023-03-11T22:26:25.431Z,3.94
2023-03-11T22:28:54.501Z,3.91
2023-03-11T22:31:23.668Z,3.87
2023-03-11T22:33:52.215Z,3.84
2023-03-11T22:36:20.941Z,3.81
2023-03-11T22:38:50.097Z,3.78
2023-03-11T22:41:20.572Z,3.74
2023-03-11T22:43:49.217Z,3.69
2023-03-11T22:46:18.196Z,3.62
2023-03-11T22:48:47.206Z,3.54
2023-03-11T22:51:16.068Z,3.48
2023-03-11T22:53:44.674Z,3.43
2023-03-11T22:56:15.756Z,3.38
2023-03-11T22:58:45.141Z,3.32
2023-03-11T23:01:14.440Z,3.26
2023-03-11T23:03:43.919Z,3.17
2023-03-11T23:06:16.710Z,3.08
2023-03-11T23:08:46.073Z,3.01
2023-03-11T23:11:16.964Z,2.94
2023-03-11T23:13:45.639Z,2.89
2023-03-11T23:16:17.125Z,2.83
2023-03-11T23:18:47.932Z,2.78
2023-03-11T23:21:21.019Z,2.72
2023-03-11T23:23:50.732Z,2.67
2023-03-11T23:26:20.455Z,2.61
2023-03-11T23:28:51.558Z,2.59
2023-03-11T23:31:22.897Z,2.56
2023-03-11T23:33:52.133Z,2.55
2023-03-11T23:36:22.831Z,2.52
2023-03-11T23:38:51.454Z,2.49
2023-03-11T23:41:21.784Z,2.45
2023-03-11T23:43:50.976Z,2.41
2023-03-11T23:46:20.016Z,2.38
2023-03-11T23:48:49.274Z,2.36
2023-03-11T23:51:18.656Z,2.34
2023-03-11T23:53:47.574Z,2.33
2023-03-11T23:56:19.077Z,2.30
2023-03-11T23:58:48.009Z,2.26
